EPLL/LCJ METAR and TAF weather

Enter ICAO airport designator
Station Type Date Time Source
EPLL METAR 2019/09/21 05:00 UTC NOAA

EPLL 210500Z 23006KT 9999 BKN034 10/07 Q1024


Station Type Date Time Source
EPLL Decoded METAR 2019/09/21 05:00 UTC NOAA

Station name not available
Sep 21, 2019 - 01:00 AM EDT / 2019.09.21 0500 UTC
Wind: from the SW (230 degrees) at 7 MPH (6 KT):0
Visibility: greater than 7 mile(s):0
Sky conditions: mostly cloudy
Temperature: 50 F (10 C)
Dew Point: 44 F (7 C)
Relative Humidity: 81%
Pressure (altimeter): 30.24 in. Hg (1024 hPa)
ob: EPLL 210500Z 23006KT 9999 BKN034 10/07 Q1024
cycle: 5

Station Type Date Time Source
EPLL TAF 2019/09/20 18:00 UTC NOAA

TAF EPLL 201730Z 2018/2118 26006KT 9999 BKN045
BECMG 2020/2023 BKN014 PROB40 2023/2109 4000 -RA BR BKN005
BECMG 2110/2112 BKN023

Example: see airport list